Flight Track Log - Related Links

Times and Time Zones

All times are in EDT time to prevent confusion due to time zone crossing. See the SWA2852 flight status page for this flight to view local times or setup timezone preferences in your user account.

Time Position Orientation Groundspeed Altitude Reporting Facility
EDT Latitude Longitude Course Direction KTS MPH feet Rate Location/Type
Wed 04:02:49 PM 43.0994 -77.6944 197° South 148 170 1,300  Level Cleveland Center
Wed 04:04:09 PM 43.0375 -77.7200 197° South 193 222 4,100 2,681 Climbing Cleveland Center
Wed 04:05:10 PM 42.9733 -77.7342 189° South 216 249 7,600 3,273 Climbing Cleveland Center
Wed 04:06:10 PM 42.9028 -77.7517 190° South 243 280 10,700 2,773 Climbing Cleveland Center
Wed 04:07:09 PM 42.8117 -77.7783 192° South 289 333 13,100 2,950 Climbing Cleveland Center
Wed 04:08:10 PM 42.7164 -77.7967 188° South 354 407 16,600 3,500 Climbing Cleveland Center
Wed 04:09:09 PM 42.5900 -77.8306 191° South 382 440 20,100 3,025 Climbing Cleveland Center
Wed 04:10:09 PM 42.5022 -77.9161 216° Southwest 371 427 22,600 2,579 Climbing Cleveland Center
Wed 04:11:10 PM 42.4725 -78.0694 255° West 371 427 25,300 2,380 Climbing Cleveland Center
Wed 04:12:10 PM 42.4508 -78.2306 260° West 405 466 27,400 2,067 Climbing Cleveland Center
Wed 04:13:09 PM 42.4269 -78.3947 259° West 428 493 29,400 1,900 Climbing Cleveland Center
Wed 04:14:10 PM 42.4050 -78.5669 260° West 445 512 31,200 1,289 Climbing Cleveland Center
Wed 04:15:10 PM 42.3808 -78.7392 259° West 466 536 32,000 403 Climbing Cleveland Center
Wed 04:16:09 PM 42.3600 -78.8747 258° West 466 536 32,000  Level Cleveland Center
Wed 04:17:10 PM 42.3169 -79.0725 254° West 466 536 32,000 800 Level Cleveland Center
Wed 04:18:09 PM 42.2689 -79.2336 248° West 466 536 33,600 1,765 Climbing Cleveland Center
Wed 04:19:09 PM 42.2417 -79.4025 258° West 466 536 35,500 1,835 Climbing Cleveland Center
Wed 04:20:10 PM 42.2181 -79.5683 259° West 455 524 37,300 1,686 Climbing Cleveland Center
Wed 04:21:10 PM 42.1967 -79.7311 260° West 449 517 38,900 1,350 Climbing Cleveland Center
Wed 04:22:10 PM 42.1725 -79.8883 258° West 449 517 40,000 550 Climbing Cleveland Center
Wed 04:23:10 PM 42.1506 -80.0483 260° West 449 517 40,000  Level Cleveland Center
Wed 04:24:10 PM 42.1242 -80.2053 257° West 439 505 40,000  Level Cleveland Center
Wed 04:25:09 PM 42.1036 -80.3650 260° West 434 499 40,000  Level Cleveland Center
Wed 04:26:10 PM 42.0831 -80.5019 259° West 425 489 40,000  Level Cleveland Center
Wed 04:27:10 PM 42.0558 -80.6614 257° West 430 495 40,000  Level Cleveland Center
Wed 04:28:09 PM 42.0328 -80.8181 259° West 430 495 40,000  Level Cleveland Center
Wed 04:29:09 PM 42.0072 -80.9772 258° West 430 495 40,000  Level Cleveland Center
Wed 04:30:09 PM 41.9817 -81.1361 258° West 430 495 40,000  Level Cleveland Center
Wed 04:31:09 PM 41.9578 -81.2953 259° West 430 495 40,000  Level Cleveland Center
Wed 04:32:10 PM 41.9336 -81.4511 258° West 430 495 40,000  Level Cleveland Center
Wed 04:33:09 PM 41.9075 -81.6072 257° West 430 495 40,000  Level Cleveland Center
Wed 04:34:09 PM 41.8808 -81.7656 257° West 430 495 40,000  Level Cleveland Center
Wed 04:35:10 PM 41.8542 -81.9297 258° West 430 495 40,000  Level Cleveland Center
Wed 04:36:09 PM 41.8272 -82.0850 257° West 430 495 40,000  Level Cleveland Center
Wed 04:37:09 PM 41.8022 -82.2211 256° West 430 495 40,000  Level Cleveland Center
Wed 04:38:09 PM 41.7772 -82.3736 258° West 430 495 40,000  Level Cleveland Center
Wed 04:39:09 PM 41.7475 -82.5314 256° West 430 495 40,000  Level Cleveland Center
Wed 04:40:09 PM 41.7217 -82.6864 257° West 430 495 40,000  Level Cleveland Center
Wed 04:41:09 PM 41.6936 -82.8439 257° West 430 495 40,000  Level Cleveland Center
Wed 04:42:09 PM 41.6678 -82.9986 257° West 430 495 40,000  Level Cleveland Center
Wed 04:43:09 PM 41.6389 -83.1644 257° West 425 489 40,000  Level Cleveland Center
Wed 04:44:09 PM 41.6103 -83.3186 256° West 431 496 40,000 -2,000 Level Cleveland Center
Wed 04:45:09 PM 41.5814 -83.4758 256° West 431 496 36,000  Descending Cleveland Center
Wed 04:46:09 PM 41.5547 -83.6272 257° West 431 496 40,000 1,500 Climbing Cleveland Center
Wed 04:47:09 PM 41.5275 -83.7814 257° West 431 496 39,000 -950 Descending Cleveland Center
Wed 04:48:09 PM 41.4978 -83.9433 256° West 431 496 38,100 -950 Descending Cleveland Center
Wed 04:49:09 PM 41.4681 -84.1000 256° West 438 504 37,100 -1,200 Descending Cleveland Center
Wed 04:50:09 PM 41.4600 -84.2297 265° West 438 504 35,700 -2,400 Descending Cleveland Center
Wed 04:51:09 PM 41.4725 -84.4189 275° West 449 517 32,300 -2,060 Descending Cleveland Center
Wed 04:52:55 PM 41.4842 -84.7297 273° West 470 541 30,000 -821 Descending Chicago Center
Wed 04:53:57 PM 41.4900 -84.9061 273° West 474 545 30,000  Level Chicago Center
Wed 04:54:59 PM 41.4964 -85.0806 273° West 472 543 30,000 -1,248 Level Chicago Center
Wed 04:56:02 PM 41.5019 -85.2567 272° West 471 542 27,400 -2,688 Descending Chicago Center
Wed 04:57:04 PM 41.5053 -85.4339 271° West 467 537 24,400 -1,984 Descending Chicago Center
Wed 04:58:06 PM 41.5122 -85.6008 273° West 438 504 23,300 -1,500 Descending Chicago Center
Wed 04:59:08 PM 41.5178 -85.7900 272° West 423 487 21,300 -2,129 Descending Chicago Center
Wed 05:00:10 PM 41.5217 -85.9389 272° West 405 466 18,900 -2,286 Descending Chicago Center
Wed 05:01:14 PM 41.5247 -86.0853 272° West 396 456 16,500 -2,381 Descending Chicago Center
Wed 05:02:16 PM 41.5242 -86.2275 270° West 387 445 13,900 -2,468 Descending Chicago Center
Wed 05:03:18 PM 41.5231 -86.3625 269° West 368 423 11,400 -1,887 Descending Chicago Center
Wed 05:04:20 PM 41.5219 -86.4894 269° West 348 400 10,000 -677 Descending Chicago Center
Wed 05:05:22 PM 41.5206 -86.6378 269° West 336 387 10,000  Level Chicago Center
Wed 05:06:24 PM 41.5203 -86.7636 270° West 331 381 10,000  Level Chicago Center
Wed 05:07:26 PM 41.5189 -86.8781 269° West 311 358 10,000 -629 Level Chicago Center
Wed 05:08:28 PM 41.5172 -86.9814 269° West 284 327 8,700 -1,597 Descending Chicago Center
Wed 05:09:30 PM 41.5175 -87.0858 270° West 284 327 6,700 -1,344 Descending Chicago Center
Wed 05:10:33 PM 41.5486 -87.2022 290° West 283 326 5,900 -433 Descending Chicago Center
Wed 05:11:07 PM 41.5667 -87.2500 297° West 278 320 6,000 -720 Climbing Chicago TRACON
Wed 05:12:13 PM 41.6000 -87.3667 291° West 281 323 4,700 -1,133 Descending Chicago TRACON
Wed 05:12:37 PM 41.6086 -87.3953 292° West 281 323 4,300 -558 Descending Chicago Center
Wed 05:13:39 PM 41.6367 -87.4911 291° West 281 323 3,900 -145 Descending Chicago Center
Wed 05:14:41 PM 41.6603 -87.5728 291° West 260 299 4,000 -435 Climbing Chicago Center
Wed 05:15:43 PM 41.7131 -87.6486 313° West 243 280 3,000 -907 Descending Chicago Center
Wed 05:16:07 PM 41.7333 -87.6833 308° West 240 276 2,700 -800 Descending Chicago TRACON
Wed 05:17:13 PM 41.8000 -87.6833 360° North 185 213 1,800 -700 Descending Chicago TRACON
Wed 05:18:07 PM 41.8167 -87.7167 304° West 156 180 1,300 -556 Descending Chicago TRACON
Wed 05:20:00 PM 41.7833 -87.7500 334° Northwest  Level FlightAware Approximate

Login

Don't have an account? Register now (free) for customized features, flight alerts, and more!